sensor_id;sensor_type;location;lat;lon;timestamp;pressure;altitude;pressure_sealevel;temperature;humidity
70256;BME280;57669;52.624;-1.688;2022-10-16T00:01:26;99568.40;;;7.08;63.84
70256;BME280;57669;52.624;-1.688;2022-10-16T00:03:50;99576.27;;;7.51;63.75
70256;BME280;57669;52.624;-1.688;2022-10-16T00:06:18;99577.37;;;7.18;63.37
70256;BME280;57669;52.624;-1.688;2022-10-16T00:08:42;99585.36;;;7.71;62.78
70256;BME280;57669;52.624;-1.688;2022-10-16T00:11:10;99587.68;;;7.33;62.96
70256;BME280;57669;52.624;-1.688;2022-10-16T00:13:35;99592.28;;;6.27;64.95
70256;BME280;57669;52.624;-1.688;2022-10-16T00:16:00;99589.81;;;6.93;64.41
70256;BME280;57669;52.624;-1.688;2022-10-16T00:18:26;99580.11;;;7.05;63.98
70256;BME280;57669;52.624;-1.688;2022-10-16T00:20:51;99587.20;;;7.83;62.23
70256;BME280;57669;52.624;-1.688;2022-10-16T00:23:16;99589.56;;;7.47;62.86
70256;BME280;57669;52.624;-1.688;2022-10-16T00:25:43;99595.85;;;7.57;63.71
70256;BME280;57669;52.624;-1.688;2022-10-16T00:28:08;99600.61;;;7.11;64.17
70256;BME280;57669;52.624;-1.688;2022-10-16T00:30:37;99606.11;;;7.00;64.59
70256;BME280;57669;52.624;-1.688;2022-10-16T00:33:00;99606.46;;;6.84;65.14
70256;BME280;57669;52.624;-1.688;2022-10-16T00:35:25;99612.00;;;6.72;64.62
70256;BME280;57669;52.624;-1.688;2022-10-16T00:37:51;99604.52;;;7.21;64.18
70256;BME280;57669;52.624;-1.688;2022-10-16T00:40:17;99613.19;;;7.99;63.23
70256;BME280;57669;52.624;-1.688;2022-10-16T00:42:43;99603.58;;;7.24;63.88
70256;BME280;57669;52.624;-1.688;2022-10-16T00:45:09;99606.24;;;7.69;63.59
70256;BME280;57669;52.624;-1.688;2022-10-16T00:47:37;99613.25;;;7.56;63.70
70256;BME280;57669;52.624;-1.688;2022-10-16T00:50:06;99617.28;;;7.65;63.09
70256;BME280;57669;52.624;-1.688;2022-10-16T00:52:26;99615.65;;;7.37;63.88
70256;BME280;57669;52.624;-1.688;2022-10-16T00:54:52;99625.39;;;7.35;64.22
70256;BME280;57669;52.624;-1.688;2022-10-16T00:57:17;99630.81;;;7.41;63.73
70256;BME280;57669;52.624;-1.688;2022-10-16T00:59:43;99626.29;;;7.35;63.28
70256;BME280;57669;52.624;-1.688;2022-10-16T01:02:11;99621.78;;;7.54;63.53
70256;BME280;57669;52.624;-1.688;2022-10-16T01:04:37;99627.19;;;7.59;62.46
70256;BME280;57669;52.624;-1.688;2022-10-16T01:07:06;99640.72;;;7.84;63.51
70256;BME280;57669;52.624;-1.688;2022-10-16T01:09:30;99640.66;;;7.64;63.75
70256;BME280;57669;52.624;-1.688;2022-10-16T01:12:00;99648.05;;;7.59;63.15
70256;BME280;57669;52.624;-1.688;2022-10-16T01:14:22;99641.76;;;7.47;63.18
70256;BME280;57669;52.624;-1.688;2022-10-16T01:16:46;99648.95;;;7.38;63.33
70256;BME280;57669;52.624;-1.688;2022-10-16T01:19:12;99650.12;;;7.48;62.71
70256;BME280;57669;52.624;-1.688;2022-10-16T01:21:37;99667.20;;;7.65;61.67
70256;BME280;57669;52.624;-1.688;2022-10-16T01:24:06;99677.34;;;7.90;62.03
70256;BME280;57669;52.624;-1.688;2022-10-16T01:26:36;99682.98;;;8.03;60.90
70256;BME280;57669;52.624;-1.688;2022-10-16T01:28:54;99700.49;;;7.99;62.67
70256;BME280;57669;52.624;-1.688;2022-10-16T01:31:18;99686.30;;;8.93;59.51
70256;BME280;57669;52.624;-1.688;2022-10-16T01:33:45;99682.88;;;8.62;59.21
70256;BME280;57669;52.624;-1.688;2022-10-16T01:36:11;99693.22;;;8.66;58.64
70256;BME280;57669;52.624;-1.688;2022-10-16T01:38:35;99686.16;;;9.02;58.36
70256;BME280;57669;52.624;-1.688;2022-10-16T01:41:02;99696.55;;;9.16;57.84
70256;BME280;57669;52.624;-1.688;2022-10-16T01:43:28;99709.81;;;9.32;57.70
70256;BME280;57669;52.624;-1.688;2022-10-16T01:45:51;99700.03;;;9.13;58.55
70256;BME280;57669;52.624;-1.688;2022-10-16T01:48:17;99710.61;;;8.97;59.94
70256;BME280;57669;52.624;-1.688;2022-10-16T01:50:43;99707.49;;;8.78;61.30
70256;BME280;57669;52.624;-1.688;2022-10-16T01:53:12;99702.15;;;8.88;60.81
70256;BME280;57669;52.624;-1.688;2022-10-16T01:55:36;99709.84;;;8.35;63.77
70256;BME280;57669;52.624;-1.688;2022-10-16T01:57:59;99705.61;;;8.71;62.11
70256;BME280;57669;52.624;-1.688;2022-10-16T02:02:53;99701.29;;;8.28;62.74
70256;BME280;57669;52.624;-1.688;2022-10-16T02:05:21;99699.67;;;8.54;62.11
70256;BME280;57669;52.624;-1.688;2022-10-16T02:07:42;99700.85;;;8.49;62.22
70256;BME280;57669;52.624;-1.688;2022-10-16T02:10:08;99714.87;;;8.55;61.88
70256;BME280;57669;52.624;-1.688;2022-10-16T02:12:36;99716.20;;;8.74;61.21
70256;BME280;57669;52.624;-1.688;2022-10-16T02:14:59;99710.77;;;8.76;61.56
70256;BME280;57669;52.624;-1.688;2022-10-16T02:17:25;99709.44;;;8.16;62.29
70256;BME280;57669;52.624;-1.688;2022-10-16T02:19:53;99707.94;;;8.53;62.01
70256;BME280;57669;52.624;-1.688;2022-10-16T02:22:22;99714.06;;;8.08;62.76
70256;BME280;57669;52.624;-1.688;2022-10-16T02:24:48;99726.17;;;7.62;63.02
70256;BME280;57669;52.624;-1.688;2022-10-16T02:27:15;99730.74;;;8.79;61.12
70256;BME280;57669;52.624;-1.688;2022-10-16T02:29:37;99732.73;;;8.30;61.40
70256;BME280;57669;52.624;-1.688;2022-10-16T02:32:02;99736.03;;;8.16;62.20
70256;BME280;57669;52.624;-1.688;2022-10-16T02:34:25;99734.06;;;7.57;63.34
70256;BME280;57669;52.624;-1.688;2022-10-16T02:36:51;99735.29;;;7.68;62.61
70256;BME280;57669;52.624;-1.688;2022-10-16T02:39:17;99736.85;;;7.48;63.62
70256;BME280;57669;52.624;-1.688;2022-10-16T02:41:42;99742.87;;;7.98;63.06
70256;BME280;57669;52.624;-1.688;2022-10-16T02:44:07;99738.91;;;7.45;63.71
70256;BME280;57669;52.624;-1.688;2022-10-16T02:46:33;99749.52;;;7.14;64.21
70256;BME280;57669;52.624;-1.688;2022-10-16T02:48:58;99750.43;;;7.08;64.49
70256;BME280;57669;52.624;-1.688;2022-10-16T02:51:24;99758.11;;;7.14;64.04
70256;BME280;57669;52.624;-1.688;2022-10-16T02:53:50;99760.04;;;7.48;63.87
70256;BME280;57669;52.624;-1.688;2022-10-16T02:56:16;99767.47;;;7.00;64.43
70256;BME280;57669;52.624;-1.688;2022-10-16T03:03:33;99775.94;;;7.30;63.37
70256;BME280;57669;52.624;-1.688;2022-10-16T03:05:59;99787.17;;;6.75;64.26
70256;BME280;57669;52.624;-1.688;2022-10-16T03:08:25;99797.04;;;6.67;64.76
70256;BME280;57669;52.624;-1.688;2022-10-16T03:10:51;99800.94;;;6.90;64.79
70256;BME280;57669;52.624;-1.688;2022-10-16T03:13:17;99802.67;;;6.91;64.22
70256;BME280;57669;52.624;-1.688;2022-10-16T03:15:43;99815.48;;;7.00;63.67
70256;BME280;57669;52.624;-1.688;2022-10-16T03:18:08;99814.36;;;7.52;61.80
70256;BME280;57669;52.624;-1.688;2022-10-16T03:20:34;99827.53;;;6.91;63.51
70256;BME280;57669;52.624;-1.688;2022-10-16T03:23:00;99824.24;;;7.36;61.93
70256;BME280;57669;52.624;-1.688;2022-10-16T03:25:26;99831.50;;;6.70;63.42
70256;BME280;57669;52.624;-1.688;2022-10-16T03:27:52;99830.51;;;7.35;63.24
70256;BME280;57669;52.624;-1.688;2022-10-16T03:30:17;99829.08;;;7.63;61.35
70256;BME280;57669;52.624;-1.688;2022-10-16T03:32:43;99840.58;;;7.02;62.68
70256;BME280;57669;52.624;-1.688;2022-10-16T03:35:09;99840.68;;;7.05;62.88
70256;BME280;57669;52.624;-1.688;2022-10-16T03:37:35;99847.65;;;7.46;62.60
70256;BME280;57669;52.624;-1.688;2022-10-16T03:40:01;99854.23;;;7.00;63.31
70256;BME280;57669;52.624;-1.688;2022-10-16T03:42:26;99856.62;;;7.18;62.34
70256;BME280;57669;52.624;-1.688;2022-10-16T03:44:52;99867.37;;;7.07;62.68
70256;BME280;57669;52.624;-1.688;2022-10-16T03:47:18;99869.38;;;7.46;61.90
70256;BME280;57669;52.624;-1.688;2022-10-16T03:49:44;99881.96;;;7.46;61.71
70256;BME280;57669;52.624;-1.688;2022-10-16T03:52:09;99887.34;;;7.47;61.39
70256;BME280;57669;52.624;-1.688;2022-10-16T03:54:35;99897.92;;;7.34;61.90
70256;BME280;57669;52.624;-1.688;2022-10-16T03:57:01;99899.20;;;6.99;63.14
70256;BME280;57669;52.624;-1.688;2022-10-16T03:59:27;99906.39;;;7.64;61.85
70256;BME280;57669;52.624;-1.688;2022-10-16T04:01:53;99909.87;;;7.48;61.14
70256;BME280;57669;52.624;-1.688;2022-10-16T04:04:19;99916.47;;;6.94;63.13
70256;BME280;57669;52.624;-1.688;2022-10-16T04:06:45;99931.86;;;7.47;61.93
70256;BME280;57669;52.624;-1.688;2022-10-16T04:09:10;99939.80;;;7.44;61.82
70256;BME280;57669;52.624;-1.688;2022-10-16T04:11:35;99938.55;;;7.10;61.90
70256;BME280;57669;52.624;-1.688;2022-10-16T04:14:01;99940.84;;;7.36;61.88
70256;BME280;57669;52.624;-1.688;2022-10-16T04:16:26;99942.55;;;7.64;61.32
70256;BME280;57669;52.624;-1.688;2022-10-16T04:18:52;99941.71;;;7.21;61.12
70256;BME280;57669;52.624;-1.688;2022-10-16T04:21:18;99945.61;;;6.85;62.95
70256;BME280;57669;52.624;-1.688;2022-10-16T04:23:44;99949.05;;;7.19;62.27
70256;BME280;57669;52.624;-1.688;2022-10-16T04:26:10;99956.30;;;7.01;62.16
70256;BME280;57669;52.624;-1.688;2022-10-16T04:28:35;99954.56;;;7.12;63.62
70256;BME280;57669;52.624;-1.688;2022-10-16T04:31:03;99961.46;;;6.82;63.29
70256;BME280;57669;52.624;-1.688;2022-10-16T04:33:27;99968.62;;;6.95;63.00
70256;BME280;57669;52.624;-1.688;2022-10-16T04:35:57;99968.68;;;6.91;63.13
70256;BME280;57669;52.624;-1.688;2022-10-16T04:38:19;99974.29;;;6.80;63.25
70256;BME280;57669;52.624;-1.688;2022-10-16T04:40:45;99977.39;;;7.16;61.64
70256;BME280;57669;52.624;-1.688;2022-10-16T04:43:10;99987.45;;;7.40;61.64
70256;BME280;57669;52.624;-1.688;2022-10-16T04:45:36;99992.77;;;7.69;61.10
70256;BME280;57669;52.624;-1.688;2022-10-16T04:48:02;99997.00;;;7.51;60.63
70256;BME280;57669;52.624;-1.688;2022-10-16T04:50:28;100004.58;;;7.28;61.79
70256;BME280;57669;52.624;-1.688;2022-10-16T04:52:54;100010.44;;;7.22;61.85
70256;BME280;57669;52.624;-1.688;2022-10-16T04:55:19;100019.22;;;7.33;61.58
70256;BME280;57669;52.624;-1.688;2022-10-16T04:57:45;100027.40;;;7.27;61.46
70256;BME280;57669;52.624;-1.688;2022-10-16T05:00:12;100027.05;;;7.05;62.09
70256;BME280;57669;52.624;-1.688;2022-10-16T05:02:37;100035.39;;;7.35;60.99
70256;BME280;57669;52.624;-1.688;2022-10-16T05:05:03;100043.97;;;7.19;61.16
70256;BME280;57669;52.624;-1.688;2022-10-16T05:07:28;100054.57;;;7.40;61.09
70256;BME280;57669;52.624;-1.688;2022-10-16T05:09:54;100058.48;;;7.34;61.01
70256;BME280;57669;52.624;-1.688;2022-10-16T05:12:20;100072.68;;;7.61;59.40
70256;BME280;57669;52.624;-1.688;2022-10-16T05:14:46;100075.71;;;7.80;58.85
70256;BME280;57669;52.624;-1.688;2022-10-16T05:17:11;100084.57;;;7.95;58.43
70256;BME280;57669;52.624;-1.688;2022-10-16T05:19:37;100090.90;;;7.83;58.56
70256;BME280;57669;52.624;-1.688;2022-10-16T05:22:03;100087.79;;;7.29;59.55
70256;BME280;57669;52.624;-1.688;2022-10-16T05:24:29;100092.07;;;7.12;59.92
70256;BME280;57669;52.624;-1.688;2022-10-16T05:26:55;100095.36;;;7.60;58.95
70256;BME280;57669;52.624;-1.688;2022-10-16T05:29:21;100103.74;;;7.22;59.80
70256;BME280;57669;52.624;-1.688;2022-10-16T05:31:46;100110.85;;;7.43;59.17
70256;BME280;57669;52.624;-1.688;2022-10-16T05:34:12;100112.85;;;7.32;60.01
70256;BME280;57669;52.624;-1.688;2022-10-16T05:36:38;100114.42;;;7.18;60.73
70256;BME280;57669;52.624;-1.688;2022-10-16T05:39:03;100115.67;;;7.17;61.16
70256;BME280;57669;52.624;-1.688;2022-10-16T05:41:29;100121.46;;;6.96;61.59
70256;BME280;57669;52.624;-1.688;2022-10-16T05:43:55;100123.75;;;7.33;60.66
70256;BME280;57669;52.624;-1.688;2022-10-16T05:46:21;100121.78;;;6.87;61.06
70256;BME280;57669;52.624;-1.688;2022-10-16T05:48:47;100125.54;;;7.08;61.12
70256;BME280;57669;52.624;-1.688;2022-10-16T05:51:14;100127.64;;;7.16;60.85
70256;BME280;57669;52.624;-1.688;2022-10-16T05:53:39;100135.22;;;7.54;59.87
70256;BME280;57669;52.624;-1.688;2022-10-16T05:56:05;100144.06;;;7.16;60.28
70256;BME280;57669;52.624;-1.688;2022-10-16T05:58:32;100151.75;;;7.67;59.35
70256;BME280;57669;52.624;-1.688;2022-10-16T06:00:57;100151.15;;;7.60;59.48
70256;BME280;57669;52.624;-1.688;2022-10-16T06:05:47;100151.45;;;7.04;60.19
70256;BME280;57669;52.624;-1.688;2022-10-16T06:08:13;100156.81;;;7.58;59.56
70256;BME280;57669;52.624;-1.688;2022-10-16T06:10:39;100162.71;;;7.05;60.20
70256;BME280;57669;52.624;-1.688;2022-10-16T06:13:04;100166.62;;;6.79;61.03
70256;BME280;57669;52.624;-1.688;2022-10-16T06:15:30;100167.34;;;7.33;59.98
70256;BME280;57669;52.624;-1.688;2022-10-16T06:17:56;100173.67;;;7.07;59.17
70256;BME280;57669;52.624;-1.688;2022-10-16T06:20:29;100179.82;;;7.43;58.47
70256;BME280;57669;52.624;-1.688;2022-10-16T06:22:47;100184.80;;;7.42;57.68
70256;BME280;57669;52.624;-1.688;2022-10-16T06:25:13;100187.26;;;7.37;57.94
70256;BME280;57669;52.624;-1.688;2022-10-16T06:27:39;100191.67;;;7.29;57.78
70256;BME280;57669;52.624;-1.688;2022-10-16T06:30:06;100197.63;;;7.19;58.08
70256;BME280;57669;52.624;-1.688;2022-10-16T06:32:30;100201.91;;;6.95;58.46
70256;BME280;57669;52.624;-1.688;2022-10-16T06:34:56;100207.62;;;7.21;58.64
70256;BME280;57669;52.624;-1.688;2022-10-16T06:37:22;100210.82;;;7.68;56.81
70256;BME280;57669;52.624;-1.688;2022-10-16T06:39:48;100216.52;;;7.70;56.37
70256;BME280;57669;52.624;-1.688;2022-10-16T06:42:13;100225.98;;;7.70;56.50
70256;BME280;57669;52.624;-1.688;2022-10-16T06:44:39;100233.54;;;8.06;55.48
70256;BME280;57669;52.624;-1.688;2022-10-16T06:47:05;100234.49;;;8.12;55.06
70256;BME280;57669;52.624;-1.688;2022-10-16T06:49:31;100244.98;;;8.26;55.25
70256;BME280;57669;52.624;-1.688;2022-10-16T06:51:57;100250.01;;;8.01;55.01
70256;BME280;57669;52.624;-1.688;2022-10-16T06:54:23;100256.49;;;7.77;55.53
70256;BME280;57669;52.624;-1.688;2022-10-16T06:56:48;100263.48;;;8.16;54.82
70256;BME280;57669;52.624;-1.688;2022-10-16T06:59:14;100265.69;;;8.07;54.47
70256;BME280;57669;52.624;-1.688;2022-10-16T07:01:41;100269.67;;;7.84;54.55
70256;BME280;57669;52.624;-1.688;2022-10-16T07:04:06;100272.92;;;7.98;54.99
70256;BME280;57669;52.624;-1.688;2022-10-16T07:06:33;100280.22;;;8.13;54.66
70256;BME280;57669;52.624;-1.688;2022-10-16T07:08:57;100289.83;;;8.21;54.61
70256;BME280;57669;52.624;-1.688;2022-10-16T07:11:23;100294.50;;;8.12;54.34
70256;BME280;57669;52.624;-1.688;2022-10-16T07:13:49;100292.57;;;8.11;54.55
70256;BME280;57669;52.624;-1.688;2022-10-16T07:16:15;100295.22;;;7.46;56.64
70256;BME280;57669;52.624;-1.688;2022-10-16T07:18:41;100300.43;;;8.04;55.12
70256;BME280;57669;52.624;-1.688;2022-10-16T07:21:06;100304.50;;;8.13;54.76
70256;BME280;57669;52.624;-1.688;2022-10-16T07:23:31;100301.51;;;8.37;55.13
70256;BME280;57669;52.624;-1.688;2022-10-16T07:25:57;100314.71;;;8.47;54.92
70256;BME280;57669;52.624;-1.688;2022-10-16T07:28:23;100315.88;;;8.22;54.96
70256;BME280;57669;52.624;-1.688;2022-10-16T07:30:49;100324.84;;;8.38;54.72
70256;BME280;57669;52.624;-1.688;2022-10-16T07:33:14;100328.10;;;7.90;55.51
70256;BME280;57669;52.624;-1.688;2022-10-16T07:35:48;100332.94;;;8.27;55.06
70256;BME280;57669;52.624;-1.688;2022-10-16T07:38:06;100338.23;;;8.60;54.65
70256;BME280;57669;52.624;-1.688;2022-10-16T07:40:32;100333.75;;;7.82;56.03
70256;BME280;57669;52.624;-1.688;2022-10-16T07:42:57;100346.81;;;7.56;56.64
70256;BME280;57669;52.624;-1.688;2022-10-16T07:45:23;100354.95;;;7.72;57.35
70256;BME280;57669;52.624;-1.688;2022-10-16T07:47:48;100361.08;;;7.64;57.78
70256;BME280;57669;52.624;-1.688;2022-10-16T07:50:14;100366.66;;;6.97;60.12
70256;BME280;57669;52.624;-1.688;2022-10-16T07:52:41;100367.41;;;7.32;59.20
70256;BME280;57669;52.624;-1.688;2022-10-16T07:55:07;100369.74;;;7.45;59.13
70256;BME280;57669;52.624;-1.688;2022-10-16T07:57:32;100375.39;;;7.32;58.87
70256;BME280;57669;52.624;-1.688;2022-10-16T07:59:58;100379.15;;;7.22;59.19
70256;BME280;57669;52.624;-1.688;2022-10-16T08:02:23;100378.76;;;7.51;59.71
70256;BME280;57669;52.624;-1.688;2022-10-16T08:04:49;100382.13;;;7.72;58.86
70256;BME280;57669;52.624;-1.688;2022-10-16T08:07:15;100385.50;;;7.83;58.28
70256;BME280;57669;52.624;-1.688;2022-10-16T08:09:41;100387.25;;;7.51;59.15
70256;BME280;57669;52.624;-1.688;2022-10-16T08:12:07;100395.96;;;7.39;59.58
70256;BME280;57669;52.624;-1.688;2022-10-16T08:14:32;100401.85;;;7.55;59.79
70256;BME280;57669;52.624;-1.688;2022-10-16T08:16:58;100403.84;;;7.29;60.13
70256;BME280;57669;52.624;-1.688;2022-10-16T08:19:23;100406.67;;;7.34;59.81
70256;BME280;57669;52.624;-1.688;2022-10-16T08:21:49;100414.94;;;7.72;58.89
70256;BME280;57669;52.624;-1.688;2022-10-16T08:24:15;100414.95;;;7.78;58.46
70256;BME280;57669;52.624;-1.688;2022-10-16T08:26:41;100428.72;;;7.40;59.26
70256;BME280;57669;52.624;-1.688;2022-10-16T08:29:07;100427.27;;;8.13;57.81
70256;BME280;57669;52.624;-1.688;2022-10-16T08:31:32;100430.73;;;8.33;57.54
70256;BME280;57669;52.624;-1.688;2022-10-16T08:33:58;100434.12;;;8.24;57.58
70256;BME280;57669;52.624;-1.688;2022-10-16T08:36:24;100438.47;;;8.00;58.18
70256;BME280;57669;52.624;-1.688;2022-10-16T08:38:50;100443.61;;;7.93;58.53
70256;BME280;57669;52.624;-1.688;2022-10-16T08:41:23;100444.82;;;7.42;58.77
70256;BME280;57669;52.624;-1.688;2022-10-16T08:46:16;100454.58;;;7.67;58.20
70256;BME280;57669;52.624;-1.688;2022-10-16T08:48:36;100458.73;;;7.38;58.71
70256;BME280;57669;52.624;-1.688;2022-10-16T08:50:58;100475.45;;;8.12;57.42
70256;BME280;57669;52.624;-1.688;2022-10-16T08:53:28;100482.87;;;8.83;56.03
70256;BME280;57669;52.624;-1.688;2022-10-16T08:55:50;100488.71;;;8.35;56.90
70256;BME280;57669;52.624;-1.688;2022-10-16T08:58:17;100491.27;;;8.98;54.94
70256;BME280;57669;52.624;-1.688;2022-10-16T09:00:43;100488.29;;;8.08;54.99
70256;BME280;57669;52.624;-1.688;2022-10-16T09:03:14;100484.96;;;8.55;55.37
70256;BME280;57669;52.624;-1.688;2022-10-16T09:05:43;100488.14;;;8.96;54.77
70256;BME280;57669;52.624;-1.688;2022-10-16T09:08:04;100475.11;;;9.17;53.95
70256;BME280;57669;52.624;-1.688;2022-10-16T09:10:35;100481.25;;;9.13;54.82
70256;BME280;57669;52.624;-1.688;2022-10-16T09:12:56;100490.19;;;9.75;54.30
70256;BME280;57669;52.624;-1.688;2022-10-16T09:15:23;100495.50;;;9.70;52.48
70256;BME280;57669;52.624;-1.688;2022-10-16T09:17:50;100498.63;;;9.88;52.60
70256;BME280;57669;52.624;-1.688;2022-10-16T09:20:19;100504.53;;;9.06;53.24
70256;BME280;57669;52.624;-1.688;2022-10-16T09:22:32;100510.71;;;8.61;54.30
70256;BME280;57669;52.624;-1.688;2022-10-16T09:25:00;100519.54;;;9.41;52.68
70256;BME280;57669;52.624;-1.688;2022-10-16T09:27:24;100530.56;;;9.47;51.48
70256;BME280;57669;52.624;-1.688;2022-10-16T09:29:50;100522.12;;;9.76;52.26
70256;BME280;57669;52.624;-1.688;2022-10-16T09:32:18;100526.08;;;8.91;52.58
70256;BME280;57669;52.624;-1.688;2022-10-16T09:34:45;100529.15;;;9.27;52.11
70256;BME280;57669;52.624;-1.688;2022-10-16T09:37:11;100522.16;;;9.52;50.72
70256;BME280;57669;52.624;-1.688;2022-10-16T09:42:01;100520.89;;;9.53;50.80
70256;BME280;57669;52.624;-1.688;2022-10-16T09:44:28;100513.47;;;9.06;50.01
70256;BME280;57669;52.624;-1.688;2022-10-16T09:49:21;100521.84;;;9.86;49.05
70256;BME280;57669;52.624;-1.688;2022-10-16T09:51:41;100530.18;;;10.07;48.19
70256;BME280;57669;52.624;-1.688;2022-10-16T09:54:13;100528.90;;;9.59;48.69
70256;BME280;57669;52.624;-1.688;2022-10-16T09:56:34;100516.94;;;9.65;49.28
70256;BME280;57669;52.624;-1.688;2022-10-16T09:59:01;100509.62;;;9.76;48.02
70256;BME280;57669;52.624;-1.688;2022-10-16T10:01:29;100523.13;;;9.53;48.75
70256;BME280;57669;52.624;-1.688;2022-10-16T10:03:50;100527.53;;;9.93;47.99
70256;BME280;57669;52.624;-1.688;2022-10-16T10:06:21;100533.82;;;10.78;47.23
70256;BME280;57669;52.624;-1.688;2022-10-16T10:08:51;100530.62;;;10.42;46.57
70256;BME280;57669;52.624;-1.688;2022-10-16T10:11:07;100522.83;;;10.20;46.35
70256;BME280;57669;52.624;-1.688;2022-10-16T10:13:33;100517.41;;;9.86;46.05
70256;BME280;57669;52.624;-1.688;2022-10-16T10:15:58;100514.69;;;10.38;44.98
70256;BME280;57669;52.624;-1.688;2022-10-16T10:18:24;100514.66;;;10.87;45.85
70256;BME280;57669;52.624;-1.688;2022-10-16T10:20:59;100515.29;;;10.89;44.76
70256;BME280;57669;52.624;-1.688;2022-10-16T10:23:22;100521.94;;;10.95;44.56
70256;BME280;57669;52.624;-1.688;2022-10-16T10:25:50;100521.33;;;10.54;45.67
70256;BME280;57669;52.624;-1.688;2022-10-16T10:28:18;100522.94;;;11.04;44.71
70256;BME280;57669;52.624;-1.688;2022-10-16T10:30:38;100513.13;;;11.58;44.10
70256;BME280;57669;52.624;-1.688;2022-10-16T10:33:11;100510.60;;;11.44;43.76
70256;BME280;57669;52.624;-1.688;2022-10-16T10:35:30;100524.69;;;11.32;43.41
70256;BME280;57669;52.624;-1.688;2022-10-16T10:38:00;100517.70;;;11.34;41.99
70256;BME280;57669;52.624;-1.688;2022-10-16T10:40:24;100509.22;;;11.59;41.89
70256;BME280;57669;52.624;-1.688;2022-10-16T10:42:47;100504.49;;;11.86;41.57
70256;BME280;57669;52.624;-1.688;2022-10-16T10:45:18;100512.32;;;11.38;40.61
70256;BME280;57669;52.624;-1.688;2022-10-16T10:47:42;100515.21;;;11.87;40.84
70256;BME280;57669;52.624;-1.688;2022-10-16T10:50:07;100519.55;;;11.71;39.54
70256;BME280;57669;52.624;-1.688;2022-10-16T10:52:32;100509.81;;;12.04;38.31
70256;BME280;57669;52.624;-1.688;2022-10-16T10:54:53;100507.13;;;12.72;38.18
70256;BME280;57669;52.624;-1.688;2022-10-16T10:57:21;100510.75;;;13.11;37.06
70256;BME280;57669;52.624;-1.688;2022-10-16T10:59:50;100505.26;;;12.91;38.73
70256;BME280;57669;52.624;-1.688;2022-10-16T11:02:13;100512.97;;;12.48;38.19
70256;BME280;57669;52.624;-1.688;2022-10-16T11:04:43;100526.91;;;12.86;36.99
70256;BME280;57669;52.624;-1.688;2022-10-16T11:07:00;100520.13;;;13.16;36.55
70256;BME280;57669;52.624;-1.688;2022-10-16T11:09:26;100523.93;;;11.84;35.66
70256;BME280;57669;52.624;-1.688;2022-10-16T11:11:53;100522.21;;;12.82;35.47
70256;BME280;57669;52.624;-1.688;2022-10-16T11:14:19;100533.45;;;12.61;34.57
70256;BME280;57669;52.624;-1.688;2022-10-16T11:16:45;100525.85;;;12.32;36.61
70256;BME280;57669;52.624;-1.688;2022-10-16T11:19:12;100527.11;;;12.38;35.80
70256;BME280;57669;52.624;-1.688;2022-10-16T11:21:38;100519.86;;;12.40;36.96
70256;BME280;57669;52.624;-1.688;2022-10-16T11:24:00;100521.37;;;12.58;36.39
70256;BME280;57669;52.624;-1.688;2022-10-16T11:26:27;100513.90;;;13.74;34.67
70256;BME280;57669;52.624;-1.688;2022-10-16T11:28:51;100513.02;;;13.40;34.92
70256;BME280;57669;52.624;-1.688;2022-10-16T11:31:19;100512.69;;;13.44;34.07
70256;BME280;57669;52.624;-1.688;2022-10-16T11:33:45;100524.07;;;14.95;32.38
70256;BME280;57669;52.624;-1.688;2022-10-16T11:36:12;100523.29;;;13.45;33.22
70256;BME280;57669;52.624;-1.688;2022-10-16T11:38:37;100521.52;;;13.68;33.21
70256;BME280;57669;52.624;-1.688;2022-10-16T11:41:01;100524.03;;;14.28;32.17
70256;BME280;57669;52.624;-1.688;2022-10-16T11:43:27;100523.90;;;14.60;32.31
70256;BME280;57669;52.624;-1.688;2022-10-16T11:45:51;100527.61;;;14.96;32.66
70256;BME280;57669;52.624;-1.688;2022-10-16T11:48:23;100531.35;;;14.33;33.35
70256;BME280;57669;52.624;-1.688;2022-10-16T11:50:45;100532.92;;;13.04;33.88
70256;BME280;57669;52.624;-1.688;2022-10-16T11:53:13;100527.96;;;13.15;34.10
70256;BME280;57669;52.624;-1.688;2022-10-16T11:55:34;100527.99;;;14.14;32.92
70256;BME280;57669;52.624;-1.688;2022-10-16T11:58:01;100523.20;;;14.21;32.78
70256;BME280;57669;52.624;-1.688;2022-10-16T12:00:27;100524.81;;;13.83;31.57
70256;BME280;57669;52.624;-1.688;2022-10-16T12:02:56;100525.09;;;14.82;31.64
70256;BME280;57669;52.624;-1.688;2022-10-16T12:05:21;100520.52;;;14.56;30.03
70256;BME280;57669;52.624;-1.688;2022-10-16T12:07:48;100521.09;;;14.98;28.32
70256;BME280;57669;52.624;-1.688;2022-10-16T12:10:10;100521.33;;;15.21;27.10
70256;BME280;57669;52.624;-1.688;2022-10-16T12:12:38;100515.73;;;15.38;26.55
70256;BME280;57669;52.624;-1.688;2022-10-16T12:15:02;100509.36;;;17.30;26.39
70256;BME280;57669;52.624;-1.688;2022-10-16T12:17:26;100513.44;;;16.41;25.94
70256;BME280;57669;52.624;-1.688;2022-10-16T12:19:57;100511.82;;;17.20;25.33
70256;BME280;57669;52.624;-1.688;2022-10-16T12:22:18;100509.65;;;16.75;25.13
70256;BME280;57669;52.624;-1.688;2022-10-16T12:24:42;100508.15;;;15.07;26.05
70256;BME280;57669;52.624;-1.688;2022-10-16T12:29:35;100505.90;;;15.66;26.30
70256;BME280;57669;52.624;-1.688;2022-10-16T12:31:57;100518.00;;;15.10;27.82
70256;BME280;57669;52.624;-1.688;2022-10-16T12:34:27;100514.73;;;16.36;27.03
70256;BME280;57669;52.624;-1.688;2022-10-16T12:39:21;100520.94;;;17.30;25.86
70256;BME280;57669;52.624;-1.688;2022-10-16T12:41:40;100519.24;;;14.95;27.46
70256;BME280;57669;52.624;-1.688;2022-10-16T12:46:37;100529.07;;;15.19;27.49
70256;BME280;57669;52.624;-1.688;2022-10-16T12:49:06;100530.49;;;15.55;28.63
70256;BME280;57669;52.624;-1.688;2022-10-16T12:51:24;100531.76;;;14.88;29.14
70256;BME280;57669;52.624;-1.688;2022-10-16T12:56:19;100538.64;;;14.97;29.61
70256;BME280;57669;52.624;-1.688;2022-10-16T12:58:51;100528.88;;;15.55;28.74
70256;BME280;57669;52.624;-1.688;2022-10-16T13:01:12;100527.90;;;16.65;26.89
70256;BME280;57669;52.624;-1.688;2022-10-16T13:06:07;100514.65;;;18.52;25.38
70256;BME280;57669;52.624;-1.688;2022-10-16T13:08:37;100508.68;;;20.34;23.01
70256;BME280;57669;52.624;-1.688;2022-10-16T13:10:56;100502.67;;;20.26;21.42